Warning: Javascript must be enabled to use all the features on this page!


Page Loading - Please Wait...

Click to hideNews Bulletins

Peak Streamflow for the Nation

USGS 04252500 BLACK RIVER NEAR BOONVILLE NY

Oneida County, New York
Hydrologic Unit Code 04150101
Latitude  43°30'41.8", Longitude  75°18'24.4" NAD83
Drainage area 284  square miles
Gage datum 934.46 feet above NAVD88
Output formats
Table
Graph
Tab-separated file
peakfq (watstore) format
Reselect output format
Water
Year
Date Gage
Height
(feet)
Stream-
flow
(cfs)
1911 1911-05-03   4,9601,5
1912 1912-04-17 10.40 6,8005
1913 1913-03-28 12.50 12,4005
1914 1914-04-20 10.03 6,0405
1915 1915-04-12 8.96 4,0905
1916 1916-05-18 9.45 4,7505
1917 1917-06-12 9.80 5,6005
1918 1917-10-31 9.60 5,2305
1919 1919-04-13 10.20 6,3805
1920 1920-04-21 8.60 3,6205
1921 1920-12-15 9.20 4,4105
1922 1922-04-12   5,7905
1923 1923-04-08 8.88 3,9805
1924 1924-01-12 10.30 6,5905
1925 1924-10-01 9.50 4,8205
1926 1926-04-25 10.60 7,2405
1927 1927-03-19 8.80 3,8805
1928 1928-04-08 10.50 7,0205
1929 1929-04-07 9.40 4,6805
1930 1930-01-09 10.00 5,9805
1931 1931-04-12 8.80 3,8805
1932 1932-04-11 8.70 3,7505
1933 1932-10-07 10.50 7,0205
1934 1934-04-17 9.042 5,2005
1935 1935-06-18 8.12 3,3505
1936 1936-03-18 9.472 6,3005
1937 1937-01-01 8.30 3,6605
1938 1938-03-25 9.452 6,2405
1939 1939-04-26 8.622 4,2705
1940 1940-04-19 8.90 4,8705
1941 1940-12-30 9.88 7,4605
1942 1942-09-28 9.93 6,8405
1943 1943-05-01 9.252 4,9205
1944 1944-04-25 9.22 5,0305
1945 1945-03-22 9.68 5,8705
1946 1945-10-03 11.25 10,4005
1947 1947-06-03 10.62 8,6505
1948 1948-03-28 9.14 7,2405
1949 1949-03-28 9.29 5,2905
1950 1950-04-21 9.25 5,4005
1951 1951-03-31 10.05 7,1905
1952 1952-04-06 9.69 5,8705
1953 1953-03-25 9.86 6,7405
1954 1954-04-18 9.162 5,2205
1955 1955-04-16 9.62 5,9405
1956 1956-05-31 9.45 5,6005
1957 1957-01-25 8.241,2 3,1002,5
1958 1957-12-21 10.46 8,9005
1959 1959-04-20 8.542 4,1105
1960 1959-11-07 9.79 6,3705
1961 1961-02-27 8.952 4,3205
1962 1962-04-08 9.28 5,0005
1963 1963-04-04 9.82 6,9005
1964 1964-03-06 9.822 6,9005
1965 1965-04-23 8.632 4,1305
1966 1966-02-14 9.651 4,0005
1967 1967-04-04 8.77 4,4305
1968 1968-04-02 9.022 4,9505
1969 1969-05-20 11.27 11,3005
1970 1970-04-25 8.77 5,1405
1971 1971-05-09 8.47 4,5105
1972 1972-05-03 10.65 11,7005
1973 1973-03-18 9.64 7,3405
1974 1974-04-15 9.12 5,7005
1975 1975-09-27 9.28 6,1605
1976 1976-04-02 10.372 10,3005
1977 1977-03-15 10.25 9,7405
1978 1978-04-14 8.412 4,0205
1979 1979-03-07 9.552 6,4205
1980 1980-04-10 8.822 4,4905
1981 1981-02-23 9.282 5,5005
1982 1982-04-18 11.31 12,8005
1983 1983-05-02 8.12 3,6605
1984 1983-12-14 10.132 7,9905
1985 1984-12-30 11.41 12,8005
1986 1986-03-31 9.122 5,1805
1987 1987-04-01 9.33 5,7005
1988 1988-04-05 8.98 4,8505
1989 1989-03-30 9.11 5,1505
1990 1990-03-18 9.682 6,6405
1991 1990-12-31 9.16 5,2705
1992 1992-04-23 9.042 4,9905
1993 1993-04-11 10.79 10,3005
1994 1994-04-17 10.24 8,3505
1995 1995-01-16 9.12 5,1805
1996 1995-10-22 10.032 7,6805
1997 1996-12-02 9.86 7,4905
1998 1998-01-09 11.25 12,1005
1999 1999-01-25 9.181 4,7305
2000 2000-01-05 8.812 4,4705
2001 2001-06-24 9.69 6,9805
2002 2002-04-14 9.75 7,1405
2003 2003-03-30 9.022 5,3105
2004 2004-05-25 10.06 8,0205
2005 2005-04-03 9.73 7,3205
2006 2006-06-29 10.60 11,6005
2007 2006-10-29 9.192 6,6505
2008 2007-10-24 9.16 6,3405
2009 2009-04-04 9.102 5,6105
2010 2010-01-26 8.69 4,6705
2011 2011-04-29 10.662 10,5005
2012 2012-03-17 7.85 3,2605
2013 2013-04-20 8.692 4,6705
2014 2014-04-16 10.61 10,3005
2015 2014-10-17 9.28 6,0605
2016 2016-02-26 8.25 3,8205
2017 2017-02-26 9.38 6,3205
2018 2017-10-31 9.552 6,7705
2019 2019-04-20 9.51 6,6605
2020 2019-11-01 10.93 11,6005
2021 2021-08-20 10.05 8,3005,9
2022 2022-03-20 9.442 6,3105
?
  Peak Gage-Height Qualification Codes.
?
  Peak Streamflow Qualification Codes.